createdAt,value
2022-11-28T00:00:01.550Z,99091.72
2022-11-28T00:02:32.562Z,99090.72
2022-11-28T00:05:01.769Z,99097.00
2022-11-28T00:07:32.429Z,99092.84
2022-11-28T00:10:02.162Z,99090.69
2022-11-28T00:12:32.240Z,99092.38
2022-11-28T00:15:01.471Z,99096.16
2022-11-28T00:17:32.712Z,99091.78
2022-11-28T00:20:01.852Z,99094.88
2022-11-28T00:22:32.093Z,99096.84
2022-11-28T00:25:01.253Z,99101.91
2022-11-28T00:27:34.792Z,99107.56
2022-11-28T00:30:04.717Z,99099.78
2022-11-28T00:32:33.869Z,99105.97
2022-11-28T00:35:03.101Z,99108.56
2022-11-28T00:37:32.371Z,99101.44
2022-11-28T00:40:01.541Z,99107.44
2022-11-28T00:42:31.902Z,99106.63
2022-11-28T00:45:01.016Z,99117.13
2022-11-28T00:47:30.178Z,99105.72
2022-11-28T00:49:59.266Z,99112.66
2022-11-28T00:52:28.474Z,99112.66
2022-11-28T00:54:57.684Z,99120.16
2022-11-28T00:57:26.844Z,99124.81
2022-11-28T00:59:55.939Z,99122.91
2022-11-28T01:02:25.144Z,99116.59
2022-11-28T01:04:54.309Z,99116.59
2022-11-28T01:07:23.526Z,99106.22
2022-11-28T01:09:52.663Z,99105.59
2022-11-28T01:12:21.913Z,99096.03
2022-11-28T01:14:51.100Z,99095.91
2022-11-28T01:17:20.205Z,99091.84
2022-11-28T01:19:49.363Z,99085.72
2022-11-28T01:22:18.463Z,99088.00
2022-11-28T01:24:47.622Z,99087.19
2022-11-28T01:27:16.731Z,99086.84
2022-11-28T01:29:45.894Z,99074.06
2022-11-28T01:32:15.240Z,99081.38
2022-11-28T01:34:44.704Z,99076.19
2022-11-28T01:37:13.902Z,99082.03
2022-11-28T01:39:42.992Z,99076.84
2022-11-28T01:42:19.208Z,99071.00
2022-11-28T01:44:48.403Z,99063.56
2022-11-28T01:47:24.492Z,99055.44
2022-11-28T01:49:55.192Z,99051.22
2022-11-28T01:52:24.449Z,99048.63
2022-11-28T01:55:00.185Z,99045.88
2022-11-28T01:57:29.659Z,99041.81
2022-11-28T02:00:09.120Z,99043.44
2022-11-28T02:02:56.191Z,99033.06
2022-11-28T02:05:25.590Z,99031.44
2022-11-28T02:07:55.029Z,99027.22
2022-11-28T02:10:35.172Z,99024.47
2022-11-28T02:13:07.063Z,99032.56
2022-11-28T02:16:04.350Z,99024.47
2022-11-28T02:19:14.960Z,99016.53
2022-11-28T02:21:49.404Z,99012.16
2022-11-28T02:24:56.365Z,99006.13
2022-11-28T02:27:31.948Z,99012.97
2022-11-28T02:30:07.102Z,99005.84
2022-11-28T02:32:45.484Z,99004.88
2022-11-28T02:35:21.109Z,99010.69
2022-11-28T02:37:58.111Z,99004.72
2022-11-28T02:40:38.206Z,99005.50
2022-11-28T02:43:22.180Z,99005.84
2022-11-28T02:46:03.279Z,99005.41
2022-11-28T02:48:48.455Z,98995.84
2022-11-28T02:51:35.887Z,99000.75
2022-11-28T02:54:09.406Z,98989.84
2022-11-28T02:56:38.924Z,98990.50
2022-11-28T02:59:25.772Z,98996.91
2022-11-28T03:01:55.183Z,98989.53
2022-11-28T03:04:43.768Z,98994.47
2022-11-28T03:07:28.689Z,98985.91
2022-11-28T03:10:19.882Z,98982.69
2022-11-28T03:13:00.833Z,98976.16
2022-11-28T03:15:44.581Z,98975.53
2022-11-28T03:18:24.982Z,98976.81
2022-11-28T03:21:01.563Z,98966.78
2022-11-28T03:23:42.791Z,98966.25
2022-11-28T03:26:33.996Z,98968.84
2022-11-28T03:29:03.135Z,98970.63
2022-11-28T03:31:50.984Z,98958.94
2022-11-28T03:34:23.385Z,98955.06
2022-11-28T03:36:59.236Z,98950.19
2022-11-28T03:39:33.628Z,98950.50
2022-11-28T03:42:21.080Z,98953.44
2022-11-28T03:44:56.446Z,98952.81
2022-11-28T03:47:31.045Z,98947.63
2022-11-28T03:50:06.153Z,98954.97
2022-11-28T03:52:46.474Z,98951.53
2022-11-28T03:55:24.189Z,98950.25
2022-11-28T03:58:23.613Z,98954.31
2022-11-28T04:01:08.468Z,98945.56
2022-11-28T04:03:52.599Z,98945.56
2022-11-28T04:06:45.053Z,98935.69
2022-11-28T04:09:18.967Z,98942.69
2022-11-28T04:11:53.647Z,98945.13
2022-11-28T04:14:37.377Z,98941.88
2022-11-28T04:17:13.029Z,98934.09
2022-11-28T04:19:47.508Z,98939.13
2022-11-28T04:22:21.125Z,98933.94
2022-11-28T04:24:54.489Z,98935.88
2022-11-28T04:27:29.433Z,98937.00
2022-11-28T04:30:01.343Z,98931.16
2022-11-28T04:32:36.384Z,98931.97
2022-11-28T04:35:10.791Z,98936.66
2022-11-28T04:37:44.271Z,98916.72
2022-11-28T04:40:13.983Z,98928.56
2022-11-28T04:42:52.644Z,98926.28
2022-11-28T04:45:34.463Z,98920.75
2022-11-28T04:48:04.327Z,98915.88
2022-11-28T04:50:49.028Z,98919.44
2022-11-28T04:53:31.633Z,98925.09
2022-11-28T04:56:07.522Z,98923.94
2022-11-28T04:58:42.066Z,98926.63
2022-11-28T05:01:18.053Z,98917.22
2022-11-28T05:03:47.449Z,98924.56
2022-11-28T05:06:29.017Z,98922.78
2022-11-28T05:08:58.290Z,98929.44
2022-11-28T05:11:27.909Z,98927.81
2022-11-28T05:13:57.033Z,98933.44
2022-11-28T05:16:26.275Z,98935.09
2022-11-28T05:18:55.407Z,98936.56
2022-11-28T05:21:24.612Z,98931.88
2022-11-28T05:23:53.703Z,98935.66
2022-11-28T05:26:23.232Z,98936.44
2022-11-28T05:28:52.736Z,98952.81
2022-11-28T05:31:22.145Z,98939.69
2022-11-28T05:33:51.297Z,98939.03
2022-11-28T05:36:21.012Z,98947.00
2022-11-28T05:38:50.161Z,98937.88
2022-11-28T05:41:24.909Z,98945.66
2022-11-28T05:43:54.230Z,98943.06
2022-11-28T05:46:24.818Z,98936.25
2022-11-28T05:48:54.607Z,98942.25
2022-11-28T05:51:23.822Z,98935.28
2022-11-28T05:53:53.195Z,98928.25
2022-11-28T05:56:25.335Z,98926.28
2022-11-28T05:58:54.523Z,98921.72
2022-11-28T06:01:29.207Z,98934.22
2022-11-28T06:04:01.165Z,98939.13
2022-11-28T06:06:33.434Z,98928.75
2022-11-28T06:09:03.678Z,98935.22
2022-11-28T06:11:33.721Z,98936.84
2022-11-28T06:14:03.314Z,98936.19
2022-11-28T06:16:33.081Z,98930.56
2022-11-28T06:19:04.482Z,98931.06
2022-11-28T06:21:34.161Z,98926.19
2022-11-28T06:24:03.360Z,98929.53
2022-11-28T06:26:32.530Z,98929.75
2022-11-28T06:29:01.692Z,98929.13
2022-11-28T06:31:31.320Z,98929.94
2022-11-28T06:34:00.515Z,98935.97
2022-11-28T06:36:30.764Z,98923.94
2022-11-28T06:38:59.980Z,98923.94
2022-11-28T06:41:29.203Z,98931.59
2022-11-28T06:43:58.387Z,98930.78
2022-11-28T06:46:27.547Z,98935.66
2022-11-28T06:48:56.766Z,98937.25
2022-11-28T06:51:25.933Z,98944.56
2022-11-28T06:53:55.596Z,98940.69
2022-11-28T06:56:24.818Z,98942.81
2022-11-28T06:58:56.144Z,98952.56
2022-11-28T07:01:27.344Z,98949.50
2022-11-28T07:03:56.860Z,98948.34
2022-11-28T07:06:27.539Z,98952.94
2022-11-28T07:08:58.699Z,98948.38
2022-11-28T07:11:32.303Z,98956.66
2022-11-28T07:14:03.515Z,98950.38
2022-11-28T07:19:06.544Z,98956.66
2022-11-28T07:21:35.723Z,98949.38
2022-11-28T07:24:05.004Z,98946.44
2022-11-28T07:26:34.218Z,98941.53
2022-11-28T07:29:06.301Z,98944.50
2022-11-28T07:31:37.231Z,98946.44
2022-11-28T07:34:06.446Z,98942.22
2022-11-28T07:36:35.690Z,98944.66
2022-11-28T07:39:08.655Z,98937.38
2022-11-28T07:41:37.763Z,98934.44
2022-11-28T07:44:06.880Z,98938.69
2022-11-28T07:46:36.177Z,98935.94
2022-11-28T07:49:05.562Z,98931.84
2022-11-28T07:51:34.862Z,98931.09
2022-11-28T07:54:05.009Z,98932.38
2022-11-28T07:57:04.665Z,98935.63
2022-11-28T07:59:26.144Z,98925.09
2022-11-28T08:01:55.379Z,98928.16
2022-11-28T08:04:24.576Z,98931.25
2022-11-28T08:06:53.898Z,98925.56
2022-11-28T08:09:23.050Z,98930.13
2022-11-28T08:11:52.618Z,98921.84
2022-11-28T08:14:21.783Z,98920.22
2022-11-28T08:16:51.349Z,98921.69
2022-11-28T08:19:24.585Z,98916.63
2022-11-28T08:21:54.096Z,98924.13
2022-11-28T08:24:23.212Z,98926.72
2022-11-28T08:26:52.355Z,98920.06
2022-11-28T08:29:24.352Z,98923.47
2022-11-28T08:31:53.483Z,98917.31
2022-11-28T08:34:22.635Z,98923.97
2022-11-28T08:36:51.693Z,98917.28
2022-11-28T08:39:25.106Z,98918.25
2022-11-28T08:41:59.727Z,98924.09
2022-11-28T08:44:30.602Z,98922.59
2022-11-28T08:47:00.658Z,98922.28
2022-11-28T08:49:30.050Z,98925.19
2022-11-28T08:51:59.194Z,98925.03
2022-11-28T08:54:28.485Z,98930.88
2022-11-28T08:56:59.040Z,98922.13
2022-11-28T08:59:28.486Z,98924.59
2022-11-28T09:01:57.776Z,98928.97
2022-11-28T09:04:27.009Z,98926.38
2022-11-28T09:06:56.198Z,98924.25
2022-11-28T09:09:27.148Z,98926.56
2022-11-28T09:11:59.488Z,98924.13
2022-11-28T09:14:28.624Z,98919.06
2022-11-28T09:16:57.868Z,98925.03
2022-11-28T09:19:27.075Z,98917.69
2022-11-28T09:21:57.899Z,98914.91
2022-11-28T09:24:27.375Z,98915.56
2022-11-28T09:26:56.885Z,98910.22
2022-11-28T09:29:26.789Z,98908.78
2022-11-28T09:31:55.950Z,98918.84
2022-11-28T09:34:25.123Z,98912.38
2022-11-28T09:36:54.283Z,98911.41
2022-11-28T09:39:23.426Z,98909.63
2022-11-28T09:41:58.476Z,98900.03
2022-11-28T09:44:41.494Z,98899.88
2022-11-28T09:47:19.918Z,98895.47
2022-11-28T09:50:04.237Z,98893.50
2022-11-28T09:57:15.599Z,98892.88
2022-11-28T09:59:46.071Z,98887.03
2022-11-28T10:02:48.340Z,98889.28
2022-11-28T10:05:44.499Z,98874.78
2022-11-28T10:08:22.826Z,98877.84
2022-11-28T10:10:57.657Z,98874.44
2022-11-28T10:14:06.568Z,98874.44
2022-11-28T10:17:04.613Z,98868.75
2022-11-28T10:19:57.933Z,98871.38
2022-11-28T10:22:48.516Z,98872.56
2022-11-28T10:25:24.513Z,98866.25
2022-11-28T10:27:54.571Z,98857.97
2022-11-28T10:30:33.789Z,98855.84
2022-11-28T10:33:33.619Z,98847.66
2022-11-28T10:36:03.755Z,98850.72
2022-11-28T10:38:36.947Z,98849.88
2022-11-28T10:41:18.532Z,98848.88
2022-11-28T10:44:23.432Z,98847.25
2022-11-28T10:47:16.991Z,98836.50
2022-11-28T10:49:58.913Z,98832.63
2022-11-28T10:52:44.259Z,98824.84
2022-11-28T10:55:51.150Z,98828.69
2022-11-28T10:58:42.754Z,98819.91
2022-11-28T11:01:12.603Z,98820.53
2022-11-28T11:03:42.286Z,98818.81
2022-11-28T11:06:11.490Z,98816.06
2022-11-28T11:08:41.623Z,98813.69
2022-11-28T11:11:16.818Z,98809.41
2022-11-28T11:14:10.854Z,98814.63
2022-11-28T11:16:47.683Z,98807.50
2022-11-28T11:19:31.896Z,98807.16
2022-11-28T11:22:23.051Z,98805.47
2022-11-28T11:25:16.182Z,98807.59
2022-11-28T11:27:56.705Z,98802.81
2022-11-28T11:30:32.212Z,98808.28
2022-11-28T11:33:03.939Z,98810.97
2022-11-28T11:35:43.201Z,98804.84
2022-11-28T11:38:22.690Z,98801.75
2022-11-28T11:40:52.296Z,98809.41
2022-11-28T11:43:24.443Z,98802.88
2022-11-28T11:46:05.957Z,98797.50
2022-11-28T11:48:38.018Z,98799.41
2022-11-28T11:51:28.420Z,98790.69
2022-11-28T11:54:06.888Z,98788.09
2022-11-28T11:56:40.200Z,98779.75
2022-11-28T11:59:18.196Z,98784.75
2022-11-28T12:01:52.206Z,98781.47
2022-11-28T12:04:46.482Z,98779.84
2022-11-28T12:07:28.314Z,98790.56
2022-11-28T12:12:48.059Z,98772.78
2022-11-28T12:15:40.232Z,98775.09
2022-11-28T12:18:12.651Z,98776.28
2022-11-28T12:20:53.752Z,98772.50
2022-11-28T12:23:40.711Z,98783.38
2022-11-28T12:26:33.099Z,98775.22
2022-11-28T12:29:11.239Z,98777.28
2022-11-28T12:32:32.507Z,98772.72
2022-11-28T12:35:10.810Z,98778.88
2022-11-28T12:38:10.260Z,98766.44
2022-11-28T12:41:05.009Z,98778.56
2022-11-28T12:44:00.609Z,98777.38
2022-11-28T12:46:44.006Z,98775.16
2022-11-28T12:49:54.685Z,98783.31
2022-11-28T12:52:32.869Z,98774.22
2022-11-28T12:55:04.917Z,98771.00
2022-11-28T12:57:47.659Z,98779.97
2022-11-28T13:00:19.673Z,98777.88
2022-11-28T13:03:19.049Z,98772.84
2022-11-28T13:05:50.955Z,98772.06
2022-11-28T13:08:23.141Z,98757.44
2022-11-28T13:11:17.138Z,98774.28
2022-11-28T13:13:54.217Z,98771.03
2022-11-28T13:16:42.495Z,98776.09
2022-11-28T13:19:15.877Z,98772.22
2022-11-28T13:22:06.373Z,98773.34
2022-11-28T13:24:43.490Z,98761.66
2022-11-28T13:27:36.868Z,98759.41
2022-11-28T13:30:24.422Z,98755.53
2022-11-28T13:32:59.170Z,98757.16
2022-11-28T13:35:29.372Z,98758.94
2022-11-28T13:42:03.372Z,98760.59
2022-11-28T13:44:41.776Z,98770.50
2022-11-28T13:47:23.329Z,98760.78
2022-11-28T13:49:52.461Z,98761.94
2022-11-28T13:52:29.390Z,98762.78
2022-11-28T13:54:58.569Z,98758.25
2022-11-28T13:57:29.780Z,98764.56
2022-11-28T14:00:24.685Z,98761.00
2022-11-28T14:02:58.296Z,98754.34
2022-11-28T14:05:32.312Z,98761.84
2022-11-28T14:08:03.103Z,98760.22
2022-11-28T14:11:10.887Z,98752.13
2022-11-28T14:13:52.211Z,98746.44
2022-11-28T14:16:24.661Z,98748.38
2022-11-28T14:19:04.292Z,98749.34
2022-11-28T14:22:00.959Z,98751.97
2022-11-28T14:24:39.695Z,98753.94
2022-11-28T14:27:21.719Z,98754.75
2022-11-28T14:29:54.219Z,98750.34
2022-11-28T14:32:35.621Z,98737.88
2022-11-28T14:35:19.221Z,98738.69
2022-11-28T14:37:52.856Z,98746.78
2022-11-28T14:41:03.529Z,98746.94
2022-11-28T14:43:42.591Z,98744.69
2022-11-28T14:46:15.946Z,98735.59
2022-11-28T14:49:00.237Z,98742.72
2022-11-28T14:51:47.878Z,98738.34
2022-11-28T14:54:37.184Z,98742.09
2022-11-28T14:57:19.406Z,98741.44
2022-11-28T14:59:50.229Z,98738.03
2022-11-28T15:02:29.940Z,98738.69
2022-11-28T15:05:13.898Z,98744.69
2022-11-28T15:08:15.596Z,98737.88
2022-11-28T15:10:44.700Z,98749.06
2022-11-28T15:13:36.506Z,98748.25
2022-11-28T15:16:10.527Z,98750.84
2022-11-28T15:18:50.665Z,98748.41
2022-11-28T15:21:22.689Z,98753.59
2022-11-28T15:23:53.209Z,98757.31
2022-11-28T15:26:30.504Z,98752.78
2022-11-28T15:29:21.305Z,98757.00
2022-11-28T15:31:53.229Z,98753.44
2022-11-28T15:34:33.968Z,98762.50
2022-11-28T15:37:15.106Z,98760.41
2022-11-28T15:39:49.273Z,98756.34
2022-11-28T15:42:36.548Z,98762.03
2022-11-28T15:45:13.839Z,98763.47
2022-11-28T15:47:46.480Z,98755.22
2022-11-28T15:50:25.207Z,98758.94
2022-11-28T15:52:55.836Z,98755.34
2022-11-28T15:55:27.030Z,98770.38
2022-11-28T15:58:19.833Z,98759.22
2022-11-28T16:00:55.982Z,98763.59
2022-11-28T16:03:31.054Z,98765.69
2022-11-28T16:06:00.517Z,98771.03
2022-11-28T16:08:42.938Z,98763.75
2022-11-28T16:11:16.637Z,98763.56
2022-11-28T16:13:46.313Z,98767.78
2022-11-28T16:16:22.607Z,98769.41
2022-11-28T16:18:57.097Z,98772.50
2022-11-28T16:21:50.689Z,98769.41
2022-11-28T16:24:28.803Z,98770.38
2022-11-28T16:27:01.488Z,98771.22
2022-11-28T16:29:34.943Z,98767.66
2022-11-28T16:32:23.085Z,98773.78
2022-11-28T16:34:54.667Z,98774.75
2022-11-28T16:37:26.847Z,98779.78
2022-11-28T16:40:19.527Z,98777.06
2022-11-28T16:42:53.400Z,98780.97
2022-11-28T16:45:27.425Z,98781.94
2022-11-28T16:48:16.037Z,98786.31
2022-11-28T16:51:11.658Z,98796.53
2022-11-28T16:53:51.938Z,98793.13
2022-11-28T16:56:27.112Z,98799.97
2022-11-28T16:59:17.277Z,98798.16
2022-11-28T17:01:51.742Z,98803.63
2022-11-28T17:04:26.762Z,98797.78
2022-11-28T17:06:58.390Z,98795.84
2022-11-28T17:09:27.538Z,98800.38
2022-11-28T17:12:02.032Z,98804.75
2022-11-28T17:14:31.274Z,98807.50
2022-11-28T17:17:03.182Z,98804.28
2022-11-28T17:19:32.433Z,98803.78
2022-11-28T17:22:03.022Z,98799.72
2022-11-28T17:24:34.625Z,98808.66
2022-11-28T17:27:04.127Z,98809.47
2022-11-28T17:29:33.743Z,98804.28
2022-11-28T17:32:03.028Z,98808.66
2022-11-28T17:34:36.211Z,98804.09
2022-11-28T17:37:05.473Z,98810.25
2022-11-28T17:39:35.071Z,98813.03
2022-11-28T17:42:05.291Z,98813.50
2022-11-28T17:44:37.631Z,98812.53
2022-11-28T17:47:07.285Z,98810.09
2022-11-28T17:49:37.491Z,98817.41
2022-11-28T17:52:09.423Z,98810.44
2022-11-28T17:54:38.734Z,98805.88
2022-11-28T17:57:09.417Z,98811.41
2022-11-28T17:59:38.576Z,98807.19
2022-11-28T18:02:10.843Z,98805.56
2022-11-28T18:04:40.456Z,98806.69
2022-11-28T18:07:09.648Z,98810.41
2022-11-28T18:09:38.694Z,98808.78
2022-11-28T18:12:07.790Z,98806.03
2022-11-28T18:14:39.801Z,98801.63
2022-11-28T18:17:09.795Z,98804.09
2022-11-28T18:19:39.012Z,98798.09
2022-11-28T18:22:08.723Z,98798.91
2022-11-28T18:24:37.768Z,98800.06
2022-11-28T18:27:06.878Z,98803.91
2022-11-28T18:29:36.012Z,98809.09
2022-11-28T18:32:06.893Z,98804.41
2022-11-28T18:34:36.099Z,98812.69
2022-11-28T18:37:05.523Z,98806.03
2022-11-28T18:39:35.066Z,98804.41
2022-11-28T18:42:04.968Z,98799.38
2022-11-28T18:44:34.223Z,98805.22
2022-11-28T18:47:03.354Z,98806.84
2022-11-28T18:49:32.543Z,98806.19
2022-11-28T18:52:01.671Z,98799.22
2022-11-28T18:54:32.439Z,98805.22
2022-11-28T18:57:01.588Z,98798.28
2022-11-28T18:59:30.735Z,98795.69
2022-11-28T19:02:00.016Z,98804.91
2022-11-28T19:04:29.415Z,98804.75
2022-11-28T19:07:00.498Z,98798.28
2022-11-28T19:09:30.157Z,98797.47
2022-11-28T19:11:59.760Z,98790.00
2022-11-28T19:14:30.242Z,98802.31
2022-11-28T19:17:02.160Z,98793.72
2022-11-28T19:19:32.838Z,98800.38
2022-11-28T19:22:02.575Z,98793.28
2022-11-28T19:24:32.602Z,98794.06
2022-11-28T19:27:01.747Z,98794.38
2022-11-28T19:29:30.849Z,98794.38
2022-11-28T19:32:00.980Z,98795.19
2022-11-28T19:34:30.384Z,98793.56
2022-11-28T19:36:59.500Z,98789.03
2022-11-28T19:39:29.300Z,98791.78
2022-11-28T19:42:00.104Z,98790.97
2022-11-28T19:44:30.636Z,98788.22
2022-11-28T19:47:00.996Z,98792.72
2022-11-28T19:49:30.657Z,98787.06
2022-11-28T19:51:59.758Z,98794.03
2022-11-28T19:54:29.455Z,98799.22
2022-11-28T19:56:58.661Z,98798.06
2022-11-28T19:59:28.906Z,98799.03
2022-11-28T20:01:58.957Z,98800.50
2022-11-28T20:04:28.235Z,98810.56
2022-11-28T20:06:57.516Z,98805.88
2022-11-28T20:09:27.799Z,98811.22
2022-11-28T20:11:56.911Z,98812.66
2022-11-28T20:14:27.692Z,98822.88
2022-11-28T20:16:59.033Z,98814.78
2022-11-28T20:19:28.225Z,98822.09
2022-11-28T20:21:58.638Z,98822.59
2022-11-28T20:24:30.179Z,98819.50
2022-11-28T20:26:59.535Z,98827.63
2022-11-28T20:29:28.981Z,98831.19
2022-11-28T20:31:58.837Z,98826.00
2022-11-28T20:34:28.901Z,98821.19
2022-11-28T20:36:59.514Z,98819.25
2022-11-28T20:39:28.789Z,98816.00
2022-11-28T20:41:58.013Z,98814.88
2022-11-28T20:44:27.522Z,98813.09
2022-11-28T20:46:56.966Z,98819.09
2022-11-28T20:49:26.087Z,98813.25
2022-11-28T20:51:55.164Z,98817.63
2022-11-28T20:54:26.020Z,98821.19
2022-11-28T20:59:44.436Z,98821.53
2022-11-28T21:02:13.912Z,98818.59
2022-11-28T21:04:43.169Z,98821.53
2022-11-28T21:07:12.392Z,98818.28
2022-11-28T21:09:41.716Z,98825.56
2022-11-28T21:12:11.162Z,98817.28
2022-11-28T21:14:40.262Z,98818.09
2022-11-28T21:17:09.403Z,98815.63
2022-11-28T21:19:38.605Z,98816.16
2022-11-28T21:22:07.707Z,98815.03
2022-11-28T21:24:36.868Z,98817.78
2022-11-28T21:27:05.998Z,98816.25
2022-11-28T21:29:35.132Z,98812.00
2022-11-28T21:32:04.263Z,98814.78
2022-11-28T21:34:33.938Z,98808.47
2022-11-28T21:37:03.042Z,98816.91
2022-11-28T21:39:32.212Z,98808.78
2022-11-28T21:42:02.297Z,98820.44
2022-11-28T21:44:31.413Z,98811.22
2022-11-28T21:47:01.155Z,98815.75
2022-11-28T21:49:30.589Z,98819.78
2022-11-28T21:51:59.689Z,98814.75
2022-11-28T21:54:28.869Z,98821.03
2022-11-28T21:56:57.970Z,98816.97
2022-11-28T21:59:27.072Z,98824.59
2022-11-28T22:01:56.732Z,98818.09
2022-11-28T22:04:25.945Z,98824.91
2022-11-28T22:06:56.315Z,98823.28
2022-11-28T22:09:25.651Z,98828.31
2022-11-28T22:11:55.089Z,98823.28
2022-11-28T22:14:24.315Z,98826.84
2022-11-28T22:16:53.448Z,98825.22
2022-11-28T22:19:22.804Z,98810.50
2022-11-28T22:21:52.471Z,98819.88
2022-11-28T22:24:23.155Z,98819.88
2022-11-28T22:26:52.991Z,98823.94
2022-11-28T22:29:22.311Z,98824.59
2022-11-28T22:31:51.498Z,98830.09
2022-11-28T22:34:20.788Z,98830.09
2022-11-28T22:36:50.087Z,98822.97
2022-11-28T22:39:21.469Z,98819.41
2022-11-28T22:41:51.233Z,98823.78
2022-11-28T22:44:22.177Z,98822.97
2022-11-28T22:46:51.373Z,98819.72
2022-11-28T22:49:21.072Z,98817.28
2022-11-28T22:51:50.216Z,98813.91
2022-11-28T22:54:19.844Z,98815.69
2022-11-28T22:56:49.060Z,98809.69
2022-11-28T22:59:18.218Z,98814.88
2022-11-28T23:01:47.472Z,98813.09
2022-11-28T23:04:16.710Z,98807.25
2022-11-28T23:06:46.077Z,98808.22
2022-11-28T23:09:15.530Z,98801.88
2022-11-28T23:11:46.614Z,98810.63
2022-11-28T23:14:16.909Z,98812.84
2022-11-28T23:16:46.175Z,98810.25
2022-11-28T23:19:17.847Z,98814.31
2022-11-28T23:21:49.263Z,98810.25
2022-11-28T23:24:21.364Z,98809.28
2022-11-28T23:26:52.033Z,98809.47
2022-11-28T23:29:21.221Z,98805.63
2022-11-28T23:31:51.484Z,98801.25
2022-11-28T23:34:20.773Z,98793.47
2022-11-28T23:36:50.189Z,98800.13
2022-11-28T23:39:21.827Z,98791.22
2022-11-28T23:41:51.338Z,98792.84
2022-11-28T23:44:20.478Z,98793.31
2022-11-28T23:46:49.561Z,98787.31
2022-11-28T23:49:18.760Z,98787.78
2022-11-28T23:51:47.885Z,98790.22
2022-11-28T23:54:17.051Z,98779.84
2022-11-28T23:56:46.346Z,98789.09
2022-11-28T23:59:15.423Z,98786.50
